Time;durP1;ratioP1;P1;durP2;ratioP2;P2;SDS_P1;SDS_P2;PMS_P1;PMS_P2;Temp;Humidity;BMP_temperature;BMP_pressure;BME280_temperature;BME280_humidity;BME280_pressure;Samples;Min_cycle;Max_cycle;Signal;HPM_P1;HPM_P2
2022/09/05 00:02:37;;;;;;;2.90;2.25;;;;;;;9.63;78.46;98582.00;5077524;28;20052;-83
2022/09/05 00:05:12;;;;;;;2.53;2.33;;;;;;;9.65;78.26;98569.34;5094222;28;20048;-83
2022/09/05 00:08:00;;;;;;;4.60;2.33;;;;;;;9.60;78.27;98564.41;5094408;28;20051;-83
2022/09/05 00:10:45;;;;;;;2.38;2.17;;;;;;;9.62;78.33;98586.47;5078628;28;20071;-83
2022/09/05 00:13:22;;;;;;;3.13;2.65;;;;;;;9.62;78.59;98588.28;5077577;28;20143;-78
2022/09/05 00:16:39;;;;;;;2.30;2.15;;;;;;;9.64;78.31;98583.66;5095335;28;20094;-79
2022/09/05 00:19:09;;;;;;;3.25;2.83;;;;;;;9.72;78.17;98574.00;5095471;28;20044;-89
2022/09/05 00:22:24;;;;;;;3.42;3.13;;;;;;;9.72;78.02;98570.50;5078617;28;20047;-91
2022/09/05 00:25:05;;;;;;;5.95;4.95;;;;;;;9.76;78.16;98571.91;5077169;28;20510;-92
2022/09/05 00:27:44;;;;;;;6.47;5.32;;;;;;;9.67;77.99;98567.41;5060947;28;20533;-89
2022/09/05 00:30:16;;;;;;;5.63;5.13;;;;;;;9.68;78.34;98561.06;5094559;28;20043;-88
2022/09/05 00:33:15;;;;;;;7.00;4.60;;;;;;;9.76;78.13;98566.56;5094184;28;20043;-89
2022/09/05 00:36:03;;;;;;;6.15;5.03;;;;;;;9.76;78.02;98571.91;5078070;28;20151;-88
2022/09/05 00:38:30;;;;;;;5.78;5.18;;;;;;;9.80;78.35;98548.44;5093855;28;20146;-87
2022/09/05 00:41:03;;;;;;;5.72;5.20;;;;;;;9.87;77.58;98541.59;5077726;28;20043;-92
2022/09/05 00:43:47;;;;;;;6.60;6.00;;;;;;;9.83;77.82;98530.34;5094591;28;20055;-92
2022/09/05 00:46:17;;;;;;;5.07;4.57;;;;;;;9.76;77.95;98520.34;5094643;28;20047;-82
2022/09/05 00:49:12;;;;;;;6.88;5.07;;;;;;;9.65;78.67;98510.63;5077062;28;20490;-83
2022/09/05 00:51:52;;;;;;;4.60;4.20;;;;;;;9.59;79.26;98484.50;5059967;28;20039;-80
2022/09/05 00:54:56;;;;;;;3.85;3.45;;;;;;;9.52;79.61;98488.72;5076262;28;20052;-78
2022/09/05 00:57:53;;;;;;;3.45;3.15;;;;;;;9.49;80.01;98512.00;5094639;28;20044;-78
2022/09/05 01:00:22;;;;;;;3.40;2.78;;;;;;;9.53;80.08;98530.41;5075992;28;20036;-79
2022/09/05 01:03:25;;;;;;;13.48;2.33;;;;;;;9.43;80.48;98509.88;5093721;28;20526;-80
2022/09/05 01:06:00;;;;;;;3.15;2.70;;;;;;;9.54;80.21;98529.44;5076269;28;20052;-80
2022/09/05 01:08:39;;;;;;;4.13;3.03;;;;;;;9.48;80.28;98505.00;5076064;28;20552;-80
2022/09/05 01:11:09;;;;;;;4.63;2.70;;;;;;;9.43;80.49;98491.19;5093021;28;20145;-79
2022/09/05 01:14:03;;;;;;;3.47;3.17;;;;;;;9.42;80.58;98500.19;5092881;28;20048;-81
2022/09/05 01:17:00;;;;;;;5.30;4.80;;;;;;;9.57;80.36;98489.13;5076174;28;20044;-81
2022/09/05 01:19:44;;;;;;;4.95;4.53;;;;;;;9.49;80.06;98490.66;5075910;28;20135;-79
2022/09/05 01:22:34;;;;;;;8.63;5.63;;;;;;;9.54;80.30;98503.59;5076305;28;20543;-79
2022/09/05 01:25:09;;;;;;;4.30;3.92;;;;;;;9.53;80.63;98485.06;5092912;28;20127;-80
2022/09/05 01:27:40;;;;;;;6.38;5.13;;;;;;;9.47;80.76;98457.94;5092829;28;20044;-81
2022/09/05 01:30:14;;;;;;;6.15;5.55;;;;;;;9.47;80.60;98444.59;5078194;28;20036;-88
2022/09/05 01:33:04;;;;;;;7.32;6.55;;;;;;;9.62;80.63;98471.72;5060327;28;20125;-91
2022/09/05 01:35:48;;;;;;;7.40;6.65;;;;;;;9.58;80.21;98472.97;5059842;28;20075;-89
2022/09/05 01:38:23;;;;;;;8.55;5.85;;;;;;;9.51;80.48;98439.00;5076128;28;20059;-86
2022/09/05 01:41:14;;;;;;;6.10;5.50;;;;;;;9.71;79.95;98435.38;5059777;28;20402;-83
2022/09/05 01:44:05;;;;;;;6.97;6.28;;;;;;;9.73;79.82;98444.06;5075698;28;20047;-82
2022/09/05 01:46:34;;;;;;;7.82;6.97;;;;;;;9.73;79.79;98428.06;5075728;28;20028;-82
2022/09/05 01:49:23;;;;;;;8.93;6.93;;;;;;;9.74;79.81;98397.72;5093967;28;20133;-87
2022/09/05 01:52:37;;;;;;;8.50;7.55;;;;;;;9.69;79.97;98410.63;5093484;28;20063;-88
2022/09/05 01:55:31;;;;;;;7.50;6.80;;;;;;;9.63;80.51;98400.53;5091756;28;20062;-86
2022/09/05 01:58:12;;;;;;;7.82;5.78;;;;;;;9.56;80.53;98378.06;5076162;28;20063;-85
2022/09/05 02:00:50;;;;;;;7.03;6.43;;;;;;;9.56;80.22;98372.75;5075211;28;20089;-82
2022/09/05 02:03:30;;;;;;;5.70;5.20;;;;;;;9.61;80.19;98429.19;5091999;28;20048;-84
2022/09/05 02:06:18;;;;;;;6.25;5.65;;;;;;;9.55;80.34;98435.06;5058933;28;20047;-83
2022/09/05 02:08:50;;;;;;;6.00;5.40;;;;;;;9.59;80.63;98420.47;5058523;28;20039;-81
2022/09/05 02:11:16;;;;;;;7.07;5.25;;;;;;;9.64;80.48;98403.06;5092086;28;20044;-81
2022/09/05 02:13:55;;;;;;;5.32;4.28;;;;;;;9.72;80.12;98402.38;5091481;28;20503;-83
2022/09/05 02:16:24;;;;;;;4.07;3.75;;;;;;;9.77;79.90;98410.78;5075018;28;20517;-80
2022/09/05 02:19:05;;;;;;;3.95;3.60;;;;;;;9.78;80.15;98425.84;5093634;28;20085;-80
2022/09/05 02:21:37;;;;;;;5.30;4.28;;;;;;;9.80;79.94;98418.50;5083936;28;20101;-79
2022/09/05 02:24:26;;;;;;;4.07;3.67;;;;;;;9.90;79.74;98422.03;5091774;28;20090;-79
2022/09/05 02:27:16;;;;;;;3.97;3.60;;;;;;;9.87;79.44;98408.97;5058015;28;20070;-79
2022/09/05 02:30:09;;;;;;;3.65;3.33;;;;;;;9.94;79.10;98425.25;5093550;28;20131;-80
2022/09/05 02:33:03;;;;;;;4.65;3.85;;;;;;;9.82;79.40;98411.22;5074575;28;20048;-80
2022/09/05 02:35:38;;;;;;;5.28;4.10;;;;;;;9.82;79.51;98387.19;5074662;28;20048;-80
2022/09/05 02:38:14;;;;;;;3.65;3.35;;;;;;;9.86;79.46;98369.06;5091738;28;20048;-78
2022/09/05 02:40:47;;;;;;;4.15;3.75;;;;;;;9.88;79.57;98385.78;5075366;28;20097;-79
2022/09/05 02:43:31;;;;;;;4.63;4.18;;;;;;;10.04;79.28;98393.19;5094998;28;20130;-80
2022/09/05 02:46:29;;;;;;;4.05;3.65;;;;;;;10.11;78.64;98388.97;5076110;28;20051;-80
2022/09/05 02:49:08;;;;;;;4.90;3.47;;;;;;;10.10;78.25;98404.16;5091793;28;20048;-80
2022/09/05 02:52:02;;;;;;;5.57;5.00;;;;;;;9.95;78.60;98373.53;5074648;28;20059;-81
2022/09/05 02:54:38;;;;;;;6.70;5.63;;;;;;;9.87;78.89;98350.25;5073832;28;20135;-80
2022/09/05 02:57:14;;;;;;;6.97;5.55;;;;;;;10.01;79.12;98377.50;5059060;28;20568;-80
2022/09/05 03:00:14;;;;;;;6.25;5.65;;;;;;;10.01;78.61;98372.16;5093076;28;20066;-81
2022/09/05 03:02:49;;;;;;;5.82;4.05;;;;;;;9.89;79.04;98374.09;5091990;28;20047;-82
2022/09/05 03:05:37;;;;;;;10.75;6.35;;;;;;;10.00;79.32;98381.13;5074794;28;20040;-82
2022/09/05 03:08:25;;;;;;;6.45;5.75;;;;;;;10.10;78.97;98384.63;5074707;28;20043;-82
2022/09/05 03:11:10;;;;;;;7.68;6.00;;;;;;;10.19;78.71;98381.09;5091218;28;20578;-82
2022/09/05 03:14:01;;;;;;;8.30;6.38;;;;;;;10.34;77.95;98378.84;5074286;28;20044;-80
2022/09/05 03:17:12;;;;;;;7.13;6.47;;;;;;;10.33;77.90;98386.00;5059155;28;20036;-79
2022/09/05 03:19:53;;;;;;;7.65;6.93;;;;;;;10.43;77.25;98410.88;5075965;28;20048;-78
2022/09/05 03:22:51;;;;;;;7.35;5.22;;;;;;;10.38;76.93;98381.09;5074221;28;20043;-79
2022/09/05 03:25:27;;;;;;;6.85;5.88;;;;;;;10.40;76.81;98392.47;5076603;28;20067;-78
2022/09/05 03:28:30;;;;;;;6.70;6.05;;;;;;;10.41;76.92;98374.59;5077750;28;20046;-78
2022/09/05 03:31:18;;;;;;;7.47;6.78;;;;;;;10.54;77.02;98361.78;5061547;28;20415;-81
2022/09/05 03:33:53;;;;;;;6.50;5.90;;;;;;;10.68;76.78;98357.75;5078013;28;20135;-79
2022/09/05 03:37:13;;;;;;;6.65;5.65;;;;;;;10.82;75.81;98349.25;5078090;28;20039;-78
2022/09/05 03:40:35;;;;;;;6.38;5.78;;;;;;;11.09;75.71;98326.16;5093888;28;20051;-79
2022/09/05 03:43:45;;;;;;;6.75;5.88;;;;;;;11.09;74.42;98321.63;4997467;28;20621;-78
2022/09/05 03:46:34;;;;;;;7.05;3.90;;;;;;;11.05;74.25;98298.03;5060892;28;20048;-79
2022/09/05 03:49:29;;;;;;;4.65;4.13;;;;;;;10.94;74.81;98313.31;5091181;28;20526;-79
2022/09/05 03:52:18;;;;;;;4.38;4.05;;;;;;;11.13;74.82;98317.69;5095763;28;20139;-79
2022/09/05 03:55:22;;;;;;;4.43;3.95;;;;;;;11.21;74.45;98314.28;5074525;28;20092;-81
2022/09/05 03:58:10;;;;;;;9.00;3.80;;;;;;;11.33;73.43;98329.09;5088137;28;20060;-80
2022/09/05 04:00:39;;;;;;;5.90;5.40;;;;;;;11.30;73.70;98329.41;5060792;28;20051;-79
2022/09/05 04:03:14;;;;;;;5.88;4.32;;;;;;;11.52;72.84;98354.03;5060835;28;20042;-78
2022/09/05 04:05:51;;;;;;;7.03;5.30;;;;;;;11.36;73.11;98344.84;5077437;28;20134;-80
2022/09/05 04:08:45;;;;;;;5.75;5.25;;;;;;;11.28;73.62;98331.38;5076752;28;20048;-79
2022/09/05 04:11:36;;;;;;;4.85;4.32;;;;;;;11.36;73.66;98338.66;5074102;28;20499;-78
2022/09/05 04:14:11;;;;;;;5.18;4.68;;;;;;;11.62;73.07;98325.31;5074882;28;20059;-79
2022/09/05 04:16:50;;;;;;;4.85;4.18;;;;;;;11.79;71.94;98320.97;5075301;28;20102;-77
2022/09/05 04:19:30;;;;;;;6.93;4.15;;;;;;;11.76;71.59;98335.50;5041082;28;20032;-78
2022/09/05 04:22:08;;;;;;;5.55;3.83;;;;;;;11.96;71.06;98313.91;5057424;28;20052;-77
2022/09/05 04:24:46;;;;;;;4.07;3.70;;;;;;;12.02;70.32;98334.72;5075148;28;20055;-78
2022/09/05 04:27:31;;;;;;;5.45;4.10;;;;;;;12.11;70.25;98349.84;5056891;28;20051;-77
2022/09/05 04:30:00;;;;;;;3.83;2.75;;;;;;;12.20;69.63;98370.34;5073932;28;20108;-78
2022/09/05 04:32:52;;;;;;;3.85;3.40;;;;;;;12.03;69.97;98373.88;5073443;28;20037;-77
2022/09/05 04:35:32;;;;;;;5.95;3.50;;;;;;;12.04;70.35;98372.91;5056247;28;20400;-81
2022/09/05 04:38:07;;;;;;;;;;;;;;;12.21;70.15;98377.38;5073448;28;20522;-78
2022/09/05 04:40:35;;;;;;;5.53;3.53;;;;;;;12.29;69.98;98358.66;5073896;28;19927;-78
2022/09/05 04:43:06;;;;;;;7.85;3.10;;;;;;;12.41;68.88;98361.91;5056847;28;20063;-79
2022/09/05 04:45:44;;;;;;;6.03;3.33;;;;;;;12.55;69.50;98360.50;5074533;28;20045;-78
2022/09/05 04:48:16;;;;;;;2.80;2.60;;;;;;;12.61;68.09;98357.19;5073163;28;20041;-78
2022/09/05 04:51:00;;;;;;;4.55;2.85;;;;;;;12.44;68.04;98360.78;5039934;28;20094;-79
2022/09/05 04:53:59;;;;;;;7.60;2.63;;;;;;;12.20;68.68;98359.63;5072947;28;20076;-78
2022/09/05 04:56:38;;;;;;;8.35;2.80;;;;;;;12.21;68.63;98358.63;5055945;28;20041;-78
2022/09/05 04:59:15;;;;;;;;;;;;;;;12.22;69.21;98360.28;5072840;28;20131;-79
2022/09/05 05:01:53;;;;;;;5.95;3.53;;;;;;;12.12;69.24;98362.25;5072484;28;19920;-77
2022/09/05 05:04:23;;;;;;;6.43;3.10;;;;;;;12.22;69.66;98368.34;5046485;28;20045;-78
2022/09/05 05:07:11;;;;;;;3.95;3.00;;;;;;;12.26;69.31;98361.69;5062093;28;20040;-78
2022/09/05 05:09:46;;;;;;;3.97;3.45;;;;;;;12.42;69.07;98368.16;5072732;28;20614;-78
2022/09/05 05:12:22;;;;;;;5.70;4.03;;;;;;;12.52;68.40;98358.97;5072739;28;20064;-78
2022/09/05 05:14:59;;;;;;;4.22;3.50;;;;;;;12.42;68.11;98344.03;5072663;28;20139;-79
2022/09/05 05:17:32;;;;;;;4.00;3.70;;;;;;;12.48;68.44;98340.69;5072798;28;20044;-79
2022/09/05 05:20:23;;;;;;;3.50;3.20;;;;;;;12.49;68.51;98326.31;5055496;28;20048;-79
2022/09/05 05:23:06;;;;;;;5.00;3.15;;;;;;;12.70;68.06;98340.13;5072011;28;20048;-78
2022/09/05 05:25:42;;;;;;;4.47;2.92;;;;;;;12.91;67.47;98333.53;5093768;28;20058;-78
2022/09/05 05:28:15;;;;;;;3.03;2.70;;;;;;;12.85;66.51;98321.59;5058879;28;20563;-78
2022/09/05 05:30:42;;;;;;;9.05;3.38;;;;;;;12.87;67.07;98328.50;5058738;28;20052;-79
2022/09/05 05:33:31;;;;;;;4.10;3.67;;;;;;;13.08;66.66;98337.94;5092256;28;20531;-79
2022/09/05 05:36:00;;;;;;;4.07;2.80;;;;;;;12.96;65.86;98317.78;5058828;28;20054;-78
2022/09/05 05:38:30;;;;;;;2.60;2.50;;;;;;;12.73;66.72;98355.06;5058579;28;20556;-79
2022/09/05 05:41:24;;;;;;;6.57;2.67;;;;;;;12.75;66.90;98351.25;5092310;28;20044;-79
2022/09/05 05:43:51;;;;;;;4.47;2.85;;;;;;;12.80;66.97;98351.59;5075082;28;20052;-77
2022/09/05 05:46:45;;;;;;;3.28;2.97;;;;;;;12.95;66.48;98359.03;5093574;28;20056;-78
2022/09/05 05:49:30;;;;;;;2.92;2.50;;;;;;;13.00;65.58;98362.88;5093220;28;20048;-78
2022/09/05 05:52:34;;;;;;;3.95;2.40;;;;;;;12.89;65.66;98333.69;5092326;28;20036;-80
2022/09/05 05:55:18;;;;;;;8.90;2.40;;;;;;;12.67;66.42;98351.19;5058246;28;20457;-78
2022/09/05 05:58:02;;;;;;;5.93;2.83;;;;;;;12.75;67.13;98332.47;5075195;28;20043;-78
2022/09/05 06:00:42;;;;;;;2.95;2.50;;;;;;;13.04;66.56;98350.00;5092131;28;20043;-80
2022/09/05 06:03:54;;;;;;;5.60;2.40;;;;;;;13.19;65.67;98347.53;5058409;28;20051;-79
2022/09/05 06:06:56;;;;;;;2.35;2.15;;;;;;;13.20;65.12;98344.69;5090955;28;20502;-80
2022/09/05 06:09:49;;;;;;;8.20;2.45;;;;;;;13.19;64.78;98348.34;5058336;28;20048;-78
2022/09/05 06:12:30;;;;;;;3.53;2.30;;;;;;;13.04;65.35;98358.03;5092349;28;20051;-83
2022/09/05 06:15:15;;;;;;;4.72;2.35;;;;;;;13.05;65.22;98360.56;5075077;28;20043;-79
2022/09/05 06:18:06;;;;;;;6.60;2.58;;;;;;;13.18;65.13;98354.72;5058167;28;20519;-80
2022/09/05 06:21:29;;;;;;;6.28;2.15;;;;;;;13.17;64.89;98353.06;5091907;28;20044;-77
2022/09/05 06:24:07;;;;;;;3.38;2.88;;;;;;;13.26;65.16;98354.78;5073640;28;20063;-78
2022/09/05 06:27:01;;;;;;;9.20;2.55;;;;;;;13.33;64.56;98347.75;5073766;28;20109;-78
2022/09/05 06:29:34;;;;;;;3.45;2.75;;;;;;;13.59;64.39;98373.66;5052630;28;20052;-76
2022/09/05 06:32:31;;;;;;;4.07;2.60;;;;;;;13.33;64.10;98363.88;5058360;28;20070;-77
2022/09/05 06:35:12;;;;;;;6.32;2.63;;;;;;;13.28;64.44;98360.84;5093186;28;20040;-77
2022/09/05 06:37:57;;;;;;;3.00;2.55;;;;;;;13.46;64.33;98367.91;5074594;28;20064;-79
2022/09/05 06:40:38;;;;;;;7.45;2.53;;;;;;;13.53;64.34;98364.41;5074693;28;20044;-78
2022/09/05 06:43:33;;;;;;;3.65;2.80;;;;;;;13.88;63.89;98357.06;5093008;28;20100;-78
2022/09/05 06:46:13;;;;;;;3.65;2.70;;;;;;;14.08;62.22;98374.50;5091749;28;20044;-80
2022/09/05 06:48:51;;;;;;;5.50;2.60;;;;;;;14.08;62.45;98379.88;5091308;28;20093;-77
2022/09/05 06:51:36;;;;;;;3.53;2.90;;;;;;;14.11;61.57;98372.50;5074668;28;20483;-78
2022/09/05 06:54:33;;;;;;;2.58;2.30;;;;;;;14.38;61.15;98365.91;5091657;28;20054;-77
2022/09/05 06:57:12;;;;;;;4.90;2.20;;;;;;;14.26;61.27;98355.53;5058079;28;20447;-79
2022/09/05 07:00:03;;;;;;;5.93;2.03;;;;;;;14.42;60.57;98348.44;5092829;28;20097;-79
2022/09/05 07:02:38;;;;;;;3.53;2.10;;;;;;;14.37;61.52;98354.34;5078360;28;20069;-78
2022/09/05 07:05:27;;;;;;;4.05;1.83;;;;;;;14.26;60.54;98350.16;5078553;28;20036;-78
2022/09/05 07:08:04;;;;;;;6.25;2.10;;;;;;;14.56;60.67;98361.22;5062144;28;20055;-78
2022/09/05 07:10:39;;;;;;;2.20;2.00;;;;;;;14.77;59.18;98374.91;5095706;28;20075;-78
2022/09/05 07:13:12;;;;;;;2.33;2.13;;;;;;;14.67;58.58;98370.75;5078349;28;20093;-79
2022/09/05 07:16:09;;;;;;;2.60;2.20;;;;;;;14.44;59.63;98362.53;5078646;28;20468;-78
2022/09/05 07:18:55;;;;;;;2.83;2.63;;;;;;;14.39;59.72;98379.19;5095380;28;20040;-78
2022/09/05 07:21:31;;;;;;;2.55;2.35;;;;;;;14.14;60.54;98346.13;5078427;28;20098;-78
2022/09/05 07:24:05;;;;;;;3.20;1.80;;;;;;;14.21;60.42;98347.09;5096550;28;20040;-78
2022/09/05 07:26:34;;;;;;;3.63;2.03;;;;;;;14.13;59.96;98371.31;5077939;28;20036;-77
2022/09/05 07:29:04;;;;;;;2.60;1.92;;;;;;;14.07;60.11;98374.69;5094933;28;20062;-76
2022/09/05 07:31:34;;;;;;;6.03;2.35;;;;;;;14.17;59.88;98366.44;5061353;28;20040;-79
2022/09/05 07:34:08;;;;;;;2.92;2.05;;;;;;;14.21;60.44;98386.59;5094946;28;20044;-75
2022/09/05 07:37:04;;;;;;;1.83;1.70;;;;;;;14.28;60.28;98385.75;5077938;28;20140;-76
2022/09/05 07:39:37;;;;;;;2.40;2.20;;;;;;;14.08;59.98;98398.69;5078006;28;20056;-80
2022/09/05 07:42:07;;;;;;;2.50;2.30;;;;;;;14.23;59.57;98385.41;5090087;28;20048;-81
2022/09/05 07:44:37;;;;;;;2.65;2.20;;;;;;;14.28;59.69;98391.13;5073635;28;20096;-78
2022/09/05 07:47:19;;;;;;;2.65;2.30;;;;;;;14.23;60.07;98384.59;5062829;28;20048;-77
2022/09/05 07:49:47;;;;;;;2.13;1.85;;;;;;;14.30;60.30;98388.28;5074493;28;20090;-77
2022/09/05 07:52:19;;;;;;;3.00;1.90;;;;;;;13.88;61.04;98389.31;5067667;28;20071;-76
2022/09/05 07:54:50;;;;;;;8.60;2.17;;;;;;;13.60;62.08;98391.44;5094579;28;20048;-77
2022/09/05 07:57:20;;;;;;;8.00;1.90;;;;;;;13.64;62.14;98400.84;5094862;28;20076;-77
2022/09/05 07:59:51;;;;;;;2.17;1.85;;;;;;;13.53;62.88;98390.41;5040881;28;20044;-77
2022/09/05 08:02:17;;;;;;;4.45;1.98;;;;;;;13.34;63.26;98400.44;5073813;28;20041;-76
2022/09/05 08:04:43;;;;;;;2.08;1.88;;;;;;;13.12;63.53;98422.47;5073915;28;20085;-78
2022/09/05 08:07:13;;;;;;;2.50;2.10;;;;;;;12.92;63.98;98397.72;5082124;28;20048;-79
2022/09/05 08:09:46;;;;;;;2.40;2.20;;;;;;;13.03;64.01;98393.94;5094187;28;20036;-79
2022/09/05 08:12:27;;;;;;;2.47;2.00;;;;;;;13.23;63.60;98406.09;5077136;28;20051;-78
2022/09/05 08:15:04;;;;;;;5.68;2.42;;;;;;;13.34;63.57;98396.91;5077411;28;20092;-78
2022/09/05 08:17:34;;;;;;;1.92;1.83;;;;;;;13.47;62.91;98399.97;5060939;28;20032;-78
2022/09/05 08:20:15;;;;;;;2.58;2.10;;;;;;;13.53;62.72;98414.56;5095045;28;20044;-77
2022/09/05 08:22:57;;;;;;;2.20;2.00;;;;;;;13.45;62.73;98401.97;5077082;28;20071;-77
2022/09/05 08:25:38;;;;;;;2.55;2.10;;;;;;;13.52;62.31;98404.84;5076731;28;20089;-76
2022/09/05 08:28:09;;;;;;;2.90;2.30;;;;;;;13.47;61.99;98399.16;5094196;28;20135;-76
2022/09/05 08:30:43;;;;;;;2.80;2.50;;;;;;;13.32;62.07;98399.78;5093852;28;20040;-77
2022/09/05 08:33:18;;;;;;;2.45;2.25;;;;;;;13.28;62.64;98403.78;5090693;28;20114;-79
2022/09/05 08:35:47;;;;;;;4.45;2.47;;;;;;;13.21;62.55;98418.81;5074862;28;20392;-78
2022/09/05 08:38:14;;;;;;;6.55;2.53;;;;;;;13.01;63.33;98428.97;5093190;28;20060;-77
2022/09/05 08:41:04;;;;;;;4.00;2.60;;;;;;;13.15;63.18;98422.13;5094932;28;20169;-77
2022/09/05 08:43:37;;;;;;;2.45;2.28;;;;;;;13.19;62.63;98420.81;5059997;28;20051;-78
2022/09/05 08:46:15;;;;;;;2.28;2.08;;;;;;;13.28;62.20;98413.69;5093537;28;20077;-78
2022/09/05 08:49:09;;;;;;;2.22;2.13;;;;;;;13.22;62.49;98436.59;5094862;28;20047;-77
2022/09/05 08:51:45;;;;;;;2.67;2.47;;;;;;;13.05;63.24;98427.66;5059937;28;20039;-77
2022/09/05 08:54:46;;;;;;;3.03;2.40;;;;;;;12.94;63.79;98433.28;5076269;28;20453;-79
2022/09/05 08:57:44;;;;;;;8.23;2.72;;;;;;;12.94;64.37;98446.72;5076915;28;20430;-78
2022/09/05 09:00:14;;;;;;;2.95;2.72;;;;;;;12.77;64.31;98445.75;5059304;28;20133;-78
2022/09/05 09:03:17;;;;;;;2.90;2.53;;;;;;;12.96;64.04;98451.91;5059701;28;20081;-78
2022/09/05 09:06:22;;;;;;;3.28;2.88;;;;;;;12.82;64.79;98462.22;5094032;28;20047;-77
2022/09/05 09:09:46;;;;;;;3.35;2.80;;;;;;;12.61;65.44;98459.06;5081279;28;20040;-76
2022/09/05 09:12:17;;;;;;;3.22;2.92;;;;;;;12.73;65.26;98448.94;5091730;28;20052;-75
2022/09/05 09:14:56;;;;;;;2.85;2.65;;;;;;;12.57;65.58;98453.19;5075553;28;20040;-77
2022/09/05 09:17:29;;;;;;;3.53;2.70;;;;;;;12.67;65.40;98434.28;5075993;28;20515;-77
2022/09/05 09:20:35;;;;;;;5.03;3.10;;;;;;;13.00;64.91;98448.72;5059238;28;20134;-78
2022/09/05 09:23:07;;;;;;;3.13;2.90;;;;;;;12.81;64.47;98457.00;5075026;28;20040;-77
2022/09/05 09:25:33;;;;;;;3.00;2.70;;;;;;;12.56;65.41;98456.00;5059083;28;20059;-78
2022/09/05 09:28:27;;;;;;;3.25;2.95;;;;;;;12.66;65.29;98459.44;5092580;28;20083;-77
2022/09/05 09:31:04;;;;;;;3.75;3.15;;;;;;;13.09;64.39;98457.69;5075591;28;20134;-78
2022/09/05 09:33:42;;;;;;;3.83;2.92;;;;;;;13.32;63.24;98464.19;5058741;28;20048;-78
2022/09/05 09:36:19;;;;;;;4.10;3.30;;;;;;;13.13;63.45;98475.97;5075714;28;20466;-78
2022/09/05 09:39:10;;;;;;;4.00;3.60;;;;;;;12.99;63.46;98468.53;5092220;28;20059;-78
2022/09/05 09:41:58;;;;;;;3.20;2.90;;;;;;;13.07;63.81;98483.81;5092097;28;20494;-77
2022/09/05 09:44:51;;;;;;;3.55;3.25;;;;;;;13.23;63.30;98465.13;5075146;28;20139;-78
2022/09/05 09:47:44;;;;;;;4.82;3.70;;;;;;;13.16;62.86;98469.44;5075119;28;20415;-77
2022/09/05 09:50:16;;;;;;;5.82;3.42;;;;;;;13.14;63.07;98460.72;5075156;28;20047;-77
2022/09/05 09:52:58;;;;;;;4.40;3.20;;;;;;;13.12;62.77;98468.06;5075248;28;20123;-77
2022/09/05 09:56:00;;;;;;;3.83;3.47;;;;;;;13.22;62.71;98474.16;5075672;28;20133;-77
2022/09/05 09:58:39;;;;;;;9.82;3.85;;;;;;;13.25;62.12;98463.16;5058276;28;20402;-77
2022/09/05 10:01:20;;;;;;;3.70;3.40;;;;;;;13.20;62.32;98459.22;5058693;28;20063;-77
2022/09/05 10:04:14;;;;;;;4.38;3.85;;;;;;;13.29;61.78;98494.03;5058848;28;20046;-77
2022/09/05 10:07:17;;;;;;;4.63;3.38;;;;;;;12.91;62.85;98459.59;5093352;28;20138;-77
2022/09/05 10:10:34;;;;;;;3.95;3.53;;;;;;;12.76;63.75;98484.31;5058264;28;20051;-77
2022/09/05 10:13:02;;;;;;;3.53;3.22;;;;;;;12.77;63.91;98485.97;5091935;28;20069;-78
2022/09/05 10:15:43;;;;;;;4.18;3.78;;;;;;;12.62;63.97;98482.19;5058416;28;20051;-78
2022/09/05 10:18:27;;;;;;;7.88;3.60;;;;;;;12.71;64.15;98480.41;5058277;28;20075;-76
2022/09/05 10:21:01;;;;;;;4.05;3.65;;;;;;;12.59;63.99;98477.16;5093138;28;20067;-77
2022/09/05 10:23:40;;;;;;;4.32;3.40;;;;;;;12.56;64.07;98480.13;5075158;28;20146;-77
2022/09/05 10:26:55;;;;;;;3.70;3.40;;;;;;;12.44;64.79;98494.78;5058686;28;20046;-78
2022/09/05 10:29:37;;;;;;;3.58;3.28;;;;;;;12.34;64.98;98501.09;5093262;28;20055;-77
2022/09/05 10:32:20;;;;;;;4.05;3.50;;;;;;;12.40;64.93;98495.09;5074784;28;20089;-77
2022/09/05 10:35:15;;;;;;;4.35;3.55;;;;;;;12.06;65.98;98502.16;5074771;28;20079;-77
2022/09/05 10:37:49;;;;;;;4.03;3.67;;;;;;;11.93;66.01;98488.31;5092480;28;20503;-77
2022/09/05 10:40:22;;;;;;;4.45;3.90;;;;;;;11.88;66.42;98492.28;5084870;28;20070;-78
2022/09/05 10:43:07;;;;;;;8.20;3.70;;;;;;;12.03;66.68;98502.47;5071412;28;20040;-78
2022/09/05 10:45:49;;;;;;;4.30;3.88;;;;;;;12.19;65.87;98499.94;5071406;28;20568;-77
2022/09/05 10:48:20;;;;;;;3.60;3.30;;;;;;;12.16;65.91;98494.91;5072631;28;20098;-75
2022/09/05 10:51:00;;;;;;;3.47;3.17;;;;;;;12.23;65.39;98490.59;5054847;28;20055;-77
2022/09/05 10:53:42;;;;;;;3.92;3.53;;;;;;;12.26;65.25;98497.47;5072964;28;20399;-77
2022/09/05 10:56:21;;;;;;;4.78;3.33;;;;;;;12.09;65.16;98465.19;5071567;28;20193;-76
2022/09/05 10:59:14;;;;;;;4.93;3.80;;;;;;;12.27;65.13;98520.63;5071294;28;20460;-77
2022/09/05 11:01:46;;;;;;;4.10;3.60;;;;;;;12.31;64.95;98512.13;5054794;28;20416;-76
2022/09/05 11:04:39;;;;;;;3.88;3.40;;;;;;;12.18;65.42;98519.69;5037671;28;20516;-77
2022/09/05 11:07:29;;;;;;;4.63;3.80;;;;;;;12.13;65.34;98508.59;5054216;28;20049;-78
2022/09/05 11:10:10;;;;;;;4.45;3.67;;;;;;;12.19;65.28;98523.22;5038075;28;20044;-76
2022/09/05 11:13:07;;;;;;;4.10;3.70;;;;;;;12.17;64.98;98504.59;5054652;28;20076;-76
2022/09/05 11:15:56;;;;;;;6.57;3.28;;;;;;;12.09;65.33;98525.97;5072395;28;20443;-84
2022/09/05 11:18:40;;;;;;;3.53;3.15;;;;;;;12.09;66.07;98523.28;5054613;28;20060;-77
2022/09/05 11:21:25;;;;;;;3.75;3.45;;;;;;;11.91;66.40;98532.13;5071803;28;20036;-77
2022/09/05 11:24:30;;;;;;;3.95;3.22;;;;;;;11.76;66.66;98517.53;5070930;28;20395;-75
2022/09/05 11:27:17;;;;;;;4.38;3.55;;;;;;;11.85;66.82;98526.56;5067561;28;20049;-80
2022/09/05 11:29:47;;;;;;;4.10;3.28;;;;;;;11.73;66.57;98530.41;5054055;28;20040;-81
2022/09/05 11:32:35;;;;;;;5.32;3.95;;;;;;;11.70;67.20;98542.25;5054128;28;20048;-77
2022/09/05 11:35:21;;;;;;;4.57;3.83;;;;;;;11.83;67.10;98518.66;5071065;28;20059;-77
2022/09/05 11:38:08;;;;;;;6.28;3.22;;;;;;;11.91;66.88;98526.78;5037200;28;20060;-75
2022/09/05 11:40:52;;;;;;;3.42;3.13;;;;;;;11.81;66.53;98536.69;5070660;28;20044;-77
2022/09/05 11:43:40;;;;;;;7.93;3.20;;;;;;;11.84;66.49;98557.84;5037297;28;20045;-76
2022/09/05 11:46:24;;;;;;;4.32;3.90;;;;;;;11.64;66.26;98498.19;5072105;28;20036;-76
2022/09/05 11:49:17;;;;;;;5.82;3.42;;;;;;;11.79;66.87;98538.69;5075956;28;20086;-74
2022/09/05 11:52:11;;;;;;;3.97;3.58;;;;;;;11.89;66.79;98542.19;5057779;28;20040;-76
2022/09/05 11:55:14;;;;;;;6.15;4.03;;;;;;;11.79;67.07;98546.72;5057684;28;20048;-78
2022/09/05 11:57:50;;;;;;;5.72;4.00;;;;;;;11.80;66.89;98560.94;5057400;28;20098;-79
2022/09/05 12:00:23;;;;;;;5.93;3.85;;;;;;;11.68;67.23;98555.78;5040892;28;20576;-77
2022/09/05 12:02:57;;;;;;;4.50;3.95;;;;;;;11.67;67.36;98545.22;5057489;28;20040;-76
2022/09/05 12:05:39;;;;;;;3.25;2.95;;;;;;;11.75;67.02;98561.38;5048204;28;20131;-82
2022/09/05 12:08:28;;;;;;;5.00;4.28;;;;;;;11.64;67.34;98545.53;5050592;28;20050;-76
2022/09/05 12:11:13;;;;;;;5.18;3.78;;;;;;;11.74;67.16;98564.22;5057038;28;20036;-78
2022/09/05 12:14:00;;;;;;;4.25;3.85;;;;;;;11.68;67.63;98565.66;5057470;28;20045;-79
2022/09/05 12:16:49;;;;;;;3.72;3.42;;;;;;;11.80;67.15;98555.56;5075603;28;20044;-77
2022/09/05 12:19:38;;;;;;;;;;;;;;;11.87;67.22;98565.56;5074070;28;20040;-82
2022/09/05 12:22:16;;;;;;;5.88;4.05;;;;;;;11.85;66.81;98570.25;5058085;28;19926;-75
2022/09/05 12:25:28;;;;;;;10.00;4.15;;;;;;;11.93;66.94;98557.94;5073936;28;20044;-77
2022/09/05 12:27:59;;;;;;;4.10;3.50;;;;;;;11.80;66.45;98559.09;5040746;28;20041;-78
2022/09/05 12:30:30;;;;;;;5.43;3.67;;;;;;;11.74;67.17;98582.97;5093424;28;20040;-78
2022/09/05 12:33:30;;;;;;;4.53;3.95;;;;;;;11.61;67.54;98573.44;5076798;28;20502;-78
2022/09/05 12:36:02;;;;;;;9.02;3.65;;;;;;;11.59;67.76;98579.94;5094593;28;20055;-77
2022/09/05 12:38:34;;;;;;;4.70;4.30;;;;;;;11.57;67.50;98568.53;5076768;28;20056;-75
2022/09/05 12:41:32;;;;;;;5.05;4.25;;;;;;;11.52;67.53;98560.94;5076716;28;20132;-76
2022/09/05 12:44:01;;;;;;;3.70;3.40;;;;;;;11.73;67.37;98571.38;5092728;28;20121;-79
2022/09/05 12:46:45;;;;;;;3.58;3.28;;;;;;;11.64;67.24;98578.50;5093370;28;20129;-77
2022/09/05 12:49:36;;;;;;;5.05;3.53;;;;;;;11.59;67.68;98566.56;5092947;28;20040;-76
2022/09/05 12:52:32;;;;;;;3.80;3.50;;;;;;;11.55;67.53;98573.19;5094557;28;20040;-79
2022/09/05 12:55:25;;;;;;;5.45;3.53;;;;;;;11.58;67.42;98567.53;5074130;28;20056;-77